Aviation Digital Data Service (ADDS)

Output produced by METARs form (1739 UTC 27 May 2017)
found at http://www.aviationweather.gov/adds/metars/
 
GABS 271730Z 16006KT 9999 FEW030 30/22 Q1013 NOSIG
TAF GABS 271100Z 2712/2818 VRB02KT 4500 -TSRA BKN026 FEW030CB 
     BECMG 2713/2714 22010KT 8000 NSW NSC 
     PROB40 
     TEMPO 2715/2721 VRB15G35KT 2000 TS SHRA BKN026 FEW030CB
       
TAF GAGO 271100Z 2712/2812 20012KT 4000 DU FEW030 
     TEMPO 2712/2715 TS SCT033 FEW045CB 
     TEMPO 2718/2724 VRB18G35KT 2500 BLDU TS SCT033 SCT045CB
       
GABS 271730Z 16006KT 9999 FEW030 30/22 Q1013 NOSIG
TAF GABS 271100Z 2712/2818 VRB02KT 4500 -TSRA BKN026 FEW030CB 
     BECMG 2713/2714 22010KT 8000 NSW NSC 
     PROB40 
     TEMPO 2715/2721 VRB15G35KT 2000 TS SHRA BKN026 FEW030CB
       
TAF GAGO 271100Z 2712/2812 20012KT 4000 DU FEW030 
     TEMPO 2712/2715 TS SCT033 FEW045CB 
     TEMPO 2718/2724 VRB18G35KT 2500 BLDU TS SCT033 SCT045CB
       
GAMB 271500Z 00000KT 9999 FEW030 34/21 Q1013
GANR 271500Z 18008KT CAVOK 36/18 Q1012
GAMB 271500Z 00000KT 9999 FEW030 34/21 Q1013
GANR 271500Z 18008KT CAVOK 36/18 Q1012